sensor_id;sensor_type;location;lat;lon;timestamp;P1;durP1;ratioP1;P2;durP2;ratioP2
16634;SDS011;8431;52.458;9.998;2023-06-22T00:02:17;20.02;;;18.52;;
16634;SDS011;8431;52.458;9.998;2023-06-22T00:04:44;21.83;;;19.88;;
16634;SDS011;8431;52.458;9.998;2023-06-22T00:07:12;22.83;;;20.85;;
16634;SDS011;8431;52.458;9.998;2023-06-22T00:09:39;21.52;;;19.95;;
16634;SDS011;8431;52.458;9.998;2023-06-22T00:12:06;21.70;;;20.10;;
16634;SDS011;8431;52.458;9.998;2023-06-22T00:14:34;21.15;;;19.55;;
16634;SDS011;8431;52.458;9.998;2023-06-22T00:17:01;22.00;;;20.13;;
16634;SDS011;8431;52.458;9.998;2023-06-22T00:19:28;21.67;;;19.92;;
16634;SDS011;8431;52.458;9.998;2023-06-22T00:21:55;21.75;;;20.10;;
16634;SDS011;8431;52.458;9.998;2023-06-22T00:24:26;21.15;;;19.55;;
16634;SDS011;8431;52.458;9.998;2023-06-22T00:26:53;21.35;;;19.50;;
16634;SDS011;8431;52.458;9.998;2023-06-22T00:29:20;22.33;;;20.52;;
16634;SDS011;8431;52.458;9.998;2023-06-22T00:31:47;21.05;;;19.38;;
16634;SDS011;8431;52.458;9.998;2023-06-22T00:34:14;22.02;;;20.33;;
16634;SDS011;8431;52.458;9.998;2023-06-22T00:36:41;22.75;;;20.67;;
16634;SDS011;8431;52.458;9.998;2023-06-22T00:39:10;21.10;;;19.50;;
16634;SDS011;8431;52.458;9.998;2023-06-22T00:41:40;19.92;;;18.23;;
16634;SDS011;8431;52.458;9.998;2023-06-22T00:44:07;20.95;;;19.45;;
16634;SDS011;8431;52.458;9.998;2023-06-22T00:46:34;20.10;;;18.60;;
16634;SDS011;8431;52.458;9.998;2023-06-22T00:49:01;19.13;;;17.50;;
16634;SDS011;8431;52.458;9.998;2023-06-22T00:51:30;20.73;;;19.02;;
16634;SDS011;8431;52.458;9.998;2023-06-22T00:53:58;20.75;;;19.15;;
16634;SDS011;8431;52.458;9.998;2023-06-22T00:56:25;20.23;;;18.55;;
16634;SDS011;8431;52.458;9.998;2023-06-22T00:58:56;20.05;;;18.52;;
16634;SDS011;8431;52.458;9.998;2023-06-22T01:01:24;20.83;;;19.20;;
16634;SDS011;8431;52.458;9.998;2023-06-22T01:03:51;20.52;;;19.02;;
16634;SDS011;8431;52.458;9.998;2023-06-22T01:06:22;19.25;;;17.70;;
16634;SDS011;8431;52.458;9.998;2023-06-22T01:08:59;21.02;;;18.88;;
16634;SDS011;8431;52.458;9.998;2023-06-22T01:11:33;19.60;;;18.05;;
16634;SDS011;8431;52.458;9.998;2023-06-22T01:14:10;20.63;;;18.92;;
16634;SDS011;8431;52.458;9.998;2023-06-22T01:16:42;20.33;;;18.65;;
16634;SDS011;8431;52.458;9.998;2023-06-22T01:19:16;19.90;;;18.23;;
16634;SDS011;8431;52.458;9.998;2023-06-22T01:21:53;20.25;;;18.52;;
16634;SDS011;8431;52.458;9.998;2023-06-22T01:24:23;19.70;;;18.17;;
16634;SDS011;8431;52.458;9.998;2023-06-22T01:26:56;20.77;;;19.17;;
16634;SDS011;8431;52.458;9.998;2023-06-22T01:29:35;20.25;;;18.52;;
16634;SDS011;8431;52.458;9.998;2023-06-22T01:32:04;20.75;;;19.15;;
16634;SDS011;8431;52.458;9.998;2023-06-22T01:34:33;19.20;;;17.70;;
16634;SDS011;8431;52.458;9.998;2023-06-22T01:37:01;20.50;;;18.65;;
16634;SDS011;8431;52.458;9.998;2023-06-22T01:39:29;21.08;;;19.27;;
16634;SDS011;8431;52.458;9.998;2023-06-22T01:41:58;20.08;;;18.25;;
16634;SDS011;8431;52.458;9.998;2023-06-22T01:44:25;21.08;;;19.25;;
16634;SDS011;8431;52.458;9.998;2023-06-22T01:46:58;20.30;;;18.70;;
16634;SDS011;8431;52.458;9.998;2023-06-22T01:49:25;20.05;;;18.55;;
16634;SDS011;8431;52.458;9.998;2023-06-22T01:51:53;20.17;;;18.42;;
16634;SDS011;8431;52.458;9.998;2023-06-22T01:54:20;20.20;;;18.52;;
16634;SDS011;8431;52.458;9.998;2023-06-22T01:56:47;19.10;;;17.63;;
16634;SDS011;8431;52.458;9.998;2023-06-22T01:59:15;20.02;;;18.17;;
16634;SDS011;8431;52.458;9.998;2023-06-22T02:01:50;19.33;;;17.83;;
16634;SDS011;8431;52.458;9.998;2023-06-22T02:04:24;19.98;;;18.27;;
16634;SDS011;8431;52.458;9.998;2023-06-22T02:06:55;20.40;;;18.83;;
16634;SDS011;8431;52.458;9.998;2023-06-22T02:09:25;19.73;;;17.60;;
16634;SDS011;8431;52.458;9.998;2023-06-22T02:11:56;21.17;;;18.88;;
16634;SDS011;8431;52.458;9.998;2023-06-22T02:14:24;20.58;;;18.83;;
16634;SDS011;8431;52.458;9.998;2023-06-22T02:16:51;21.35;;;19.65;;
16634;SDS011;8431;52.458;9.998;2023-06-22T02:19:23;21.10;;;19.33;;
16634;SDS011;8431;52.458;9.998;2023-06-22T02:21:50;20.40;;;18.70;;
16634;SDS011;8431;52.458;9.998;2023-06-22T02:24:17;21.45;;;19.75;;
16634;SDS011;8431;52.458;9.998;2023-06-22T02:26:44;21.00;;;19.30;;
16634;SDS011;8431;52.458;9.998;2023-06-22T02:29:11;20.95;;;19.02;;
16634;SDS011;8431;52.458;9.998;2023-06-22T02:31:38;20.35;;;18.75;;
16634;SDS011;8431;52.458;9.998;2023-06-22T02:34:05;20.80;;;18.90;;
16634;SDS011;8431;52.458;9.998;2023-06-22T02:36:33;19.90;;;18.05;;
16634;SDS011;8431;52.458;9.998;2023-06-22T02:39:00;20.90;;;18.88;;
16634;SDS011;8431;52.458;9.998;2023-06-22T02:41:28;20.33;;;18.70;;
16634;SDS011;8431;52.458;9.998;2023-06-22T02:43:55;20.85;;;19.10;;
16634;SDS011;8431;52.458;9.998;2023-06-22T02:46:22;20.00;;;18.20;;
16634;SDS011;8431;52.458;9.998;2023-06-22T02:48:49;19.85;;;18.33;;
16634;SDS011;8431;52.458;9.998;2023-06-22T02:51:16;20.13;;;18.52;;
16634;SDS011;8431;52.458;9.998;2023-06-22T02:53:45;20.10;;;18.48;;
16634;SDS011;8431;52.458;9.998;2023-06-22T02:56:12;20.08;;;18.45;;
16634;SDS011;8431;52.458;9.998;2023-06-22T02:58:39;20.40;;;18.80;;
16634;SDS011;8431;52.458;9.998;2023-06-22T03:01:06;19.73;;;18.02;;
16634;SDS011;8431;52.458;9.998;2023-06-22T03:03:33;18.85;;;17.35;;
16634;SDS011;8431;52.458;9.998;2023-06-22T03:06:00;19.27;;;17.77;;
16634;SDS011;8431;52.458;9.998;2023-06-22T03:08:27;19.50;;;17.77;;
16634;SDS011;8431;52.458;9.998;2023-06-22T03:13:24;18.92;;;17.52;;
16634;SDS011;8431;52.458;9.998;2023-06-22T03:15:51;18.45;;;16.95;;
16634;SDS011;8431;52.458;9.998;2023-06-22T03:18:18;18.50;;;17.08;;
16634;SDS011;8431;52.458;9.998;2023-06-22T03:20:47;17.58;;;16.27;;
16634;SDS011;8431;52.458;9.998;2023-06-22T03:23:14;17.02;;;15.85;;
16634;SDS011;8431;52.458;9.998;2023-06-22T03:25:42;17.02;;;15.63;;
16634;SDS011;8431;52.458;9.998;2023-06-22T03:28:11;16.88;;;15.65;;
16634;SDS011;8431;52.458;9.998;2023-06-22T03:30:38;17.83;;;16.45;;
16634;SDS011;8431;52.458;9.998;2023-06-22T03:33:05;17.95;;;16.65;;
16634;SDS011;8431;52.458;9.998;2023-06-22T03:35:32;17.00;;;15.80;;
16634;SDS011;8431;52.458;9.998;2023-06-22T03:37:58;17.73;;;16.05;;
16634;SDS011;8431;52.458;9.998;2023-06-22T03:40:26;16.65;;;15.15;;
16634;SDS011;8431;52.458;9.998;2023-06-22T03:42:53;17.38;;;15.98;;
16634;SDS011;8431;52.458;9.998;2023-06-22T03:45:21;17.98;;;16.50;;
16634;SDS011;8431;52.458;9.998;2023-06-22T03:47:48;17.45;;;16.10;;
16634;SDS011;8431;52.458;9.998;2023-06-22T03:50:15;17.25;;;15.95;;
16634;SDS011;8431;52.458;9.998;2023-06-22T03:52:45;17.33;;;15.80;;
16634;SDS011;8431;52.458;9.998;2023-06-22T03:55:12;17.40;;;15.68;;
16634;SDS011;8431;52.458;9.998;2023-06-22T03:57:39;17.48;;;16.05;;
16634;SDS011;8431;52.458;9.998;2023-06-22T04:00:06;16.98;;;15.48;;
16634;SDS011;8431;52.458;9.998;2023-06-22T04:02:37;18.38;;;16.58;;
16634;SDS011;8431;52.458;9.998;2023-06-22T04:05:04;15.63;;;14.15;;
16634;SDS011;8431;52.458;9.998;2023-06-22T04:07:32;15.85;;;14.50;;
16634;SDS011;8431;52.458;9.998;2023-06-22T04:09:59;15.65;;;14.48;;
16634;SDS011;8431;52.458;9.998;2023-06-22T04:12:26;15.23;;;14.02;;
16634;SDS011;8431;52.458;9.998;2023-06-22T04:14:53;14.43;;;13.32;;
16634;SDS011;8431;52.458;9.998;2023-06-22T04:17:20;13.95;;;12.95;;
16634;SDS011;8431;52.458;9.998;2023-06-22T04:19:51;14.68;;;13.48;;
16634;SDS011;8431;52.458;9.998;2023-06-22T04:22:18;13.88;;;12.88;;
16634;SDS011;8431;52.458;9.998;2023-06-22T04:24:45;13.73;;;12.63;;
16634;SDS011;8431;52.458;9.998;2023-06-22T04:27:11;14.38;;;13.00;;
16634;SDS011;8431;52.458;9.998;2023-06-22T04:29:38;14.77;;;13.68;;
16634;SDS011;8431;52.458;9.998;2023-06-22T04:32:13;14.48;;;13.23;;
16634;SDS011;8431;52.458;9.998;2023-06-22T04:34:40;14.68;;;13.55;;
16634;SDS011;8431;52.458;9.998;2023-06-22T04:37:09;15.25;;;13.88;;
16634;SDS011;8431;52.458;9.998;2023-06-22T04:42:12;14.15;;;12.88;;
16634;SDS011;8431;52.458;9.998;2023-06-22T04:44:39;13.75;;;12.65;;
16634;SDS011;8431;52.458;9.998;2023-06-22T04:47:06;13.52;;;12.43;;
16634;SDS011;8431;52.458;9.998;2023-06-22T04:49:34;13.73;;;12.73;;
16634;SDS011;8431;52.458;9.998;2023-06-22T04:52:03;13.98;;;12.68;;
16634;SDS011;8431;52.458;9.998;2023-06-22T04:54:33;13.60;;;12.25;;
16634;SDS011;8431;52.458;9.998;2023-06-22T04:57:00;13.63;;;12.43;;
16634;SDS011;8431;52.458;9.998;2023-06-22T04:59:28;12.57;;;11.77;;
16634;SDS011;8431;52.458;9.998;2023-06-22T05:01:56;14.00;;;12.57;;
16634;SDS011;8431;52.458;9.998;2023-06-22T05:04:24;14.63;;;13.10;;
16634;SDS011;8431;52.458;9.998;2023-06-22T05:06:53;14.60;;;13.23;;
16634;SDS011;8431;52.458;9.998;2023-06-22T05:09:20;13.43;;;12.35;;
16634;SDS011;8431;52.458;9.998;2023-06-22T05:11:49;13.13;;;12.05;;
16634;SDS011;8431;52.458;9.998;2023-06-22T05:14:16;13.65;;;12.65;;
16634;SDS011;8431;52.458;9.998;2023-06-22T05:16:44;13.32;;;12.43;;
16634;SDS011;8431;52.458;9.998;2023-06-22T05:19:12;13.55;;;12.55;;
16634;SDS011;8431;52.458;9.998;2023-06-22T05:21:39;13.95;;;12.95;;
16634;SDS011;8431;52.458;9.998;2023-06-22T05:24:06;13.80;;;12.77;;
16634;SDS011;8431;52.458;9.998;2023-06-22T05:26:33;13.27;;;12.27;;
16634;SDS011;8431;52.458;9.998;2023-06-22T05:29:02;12.48;;;11.55;;
16634;SDS011;8431;52.458;9.998;2023-06-22T05:31:30;12.57;;;11.75;;
16634;SDS011;8431;52.458;9.998;2023-06-22T05:33:57;13.00;;;12.05;;
16634;SDS011;8431;52.458;9.998;2023-06-22T05:36:25;12.07;;;11.18;;
16634;SDS011;8431;52.458;9.998;2023-06-22T05:38:52;12.38;;;11.45;;
16634;SDS011;8431;52.458;9.998;2023-06-22T05:41:22;12.15;;;11.40;;
16634;SDS011;8431;52.458;9.998;2023-06-22T05:43:49;11.52;;;10.68;;
16634;SDS011;8431;52.458;9.998;2023-06-22T05:46:18;11.02;;;10.27;;
16634;SDS011;8431;52.458;9.998;2023-06-22T05:48:45;11.45;;;10.40;;
16634;SDS011;8431;52.458;9.998;2023-06-22T05:51:12;11.60;;;10.90;;
16634;SDS011;8431;52.458;9.998;2023-06-22T05:53:39;12.73;;;11.05;;
16634;SDS011;8431;52.458;9.998;2023-06-22T05:56:06;11.60;;;10.82;;
16634;SDS011;8431;52.458;9.998;2023-06-22T05:58:33;11.60;;;10.80;;
16634;SDS011;8431;52.458;9.998;2023-06-22T06:01:01;12.32;;;11.52;;
16634;SDS011;8431;52.458;9.998;2023-06-22T06:03:30;11.90;;;11.10;;
16634;SDS011;8431;52.458;9.998;2023-06-22T06:05:56;10.60;;;9.90;;
16634;SDS011;8431;52.458;9.998;2023-06-22T06:08:24;12.20;;;11.05;;
16634;SDS011;8431;52.458;9.998;2023-06-22T06:10:51;11.20;;;10.40;;
16634;SDS011;8431;52.458;9.998;2023-06-22T06:13:20;10.43;;;9.63;;
16634;SDS011;8431;52.458;9.998;2023-06-22T06:15:47;11.00;;;10.20;;
16634;SDS011;8431;52.458;9.998;2023-06-22T06:18:22;11.27;;;10.45;;
16634;SDS011;8431;52.458;9.998;2023-06-22T06:20:51;11.05;;;10.20;;
16634;SDS011;8431;52.458;9.998;2023-06-22T06:23:18;10.90;;;9.85;;
16634;SDS011;8431;52.458;9.998;2023-06-22T06:25:45;10.48;;;9.85;;
16634;SDS011;8431;52.458;9.998;2023-06-22T06:28:12;10.02;;;9.43;;
16634;SDS011;8431;52.458;9.998;2023-06-22T06:30:39;10.25;;;9.65;;
16634;SDS011;8431;52.458;9.998;2023-06-22T06:33:06;11.07;;;10.38;;
16634;SDS011;8431;52.458;9.998;2023-06-22T06:35:34;12.18;;;11.27;;
16634;SDS011;8431;52.458;9.998;2023-06-22T06:38:02;12.23;;;11.18;;
16634;SDS011;8431;52.458;9.998;2023-06-22T06:40:29;11.13;;;10.30;;
16634;SDS011;8431;52.458;9.998;2023-06-22T06:42:56;11.05;;;10.25;;
16634;SDS011;8431;52.458;9.998;2023-06-22T06:45:25;11.77;;;10.95;;
16634;SDS011;8431;52.458;9.998;2023-06-22T06:47:53;12.40;;;10.68;;
16634;SDS011;8431;52.458;9.998;2023-06-22T06:50:20;10.45;;;9.85;;
16634;SDS011;8431;52.458;9.998;2023-06-22T06:52:47;10.90;;;10.20;;
16634;SDS011;8431;52.458;9.998;2023-06-22T06:55:17;10.52;;;9.73;;
16634;SDS011;8431;52.458;9.998;2023-06-22T06:57:44;12.73;;;10.57;;
16634;SDS011;8431;52.458;9.998;2023-06-22T07:00:13;10.27;;;9.75;;
16634;SDS011;8431;52.458;9.998;2023-06-22T07:02:41;10.60;;;9.90;;
16634;SDS011;8431;52.458;9.998;2023-06-22T07:05:10;10.95;;;10.25;;
16634;SDS011;8431;52.458;9.998;2023-06-22T07:07:38;10.48;;;9.88;;
16634;SDS011;8431;52.458;9.998;2023-06-22T07:10:07;10.63;;;9.88;;
16634;SDS011;8431;52.458;9.998;2023-06-22T07:12:35;9.75;;;9.15;;
16634;SDS011;8431;52.458;9.998;2023-06-22T07:15:03;9.43;;;8.73;;
16634;SDS011;8431;52.458;9.998;2023-06-22T07:17:33;10.57;;;9.85;;
16634;SDS011;8431;52.458;9.998;2023-06-22T07:20:00;9.77;;;8.85;;
16634;SDS011;8431;52.458;9.998;2023-06-22T07:22:33;10.43;;;9.73;;
16634;SDS011;8431;52.458;9.998;2023-06-22T07:25:00;9.88;;;9.27;;
16634;SDS011;8431;52.458;9.998;2023-06-22T07:27:30;10.23;;;9.63;;
16634;SDS011;8431;52.458;9.998;2023-06-22T07:30:02;10.23;;;9.52;;
16634;SDS011;8431;52.458;9.998;2023-06-22T07:32:29;10.52;;;9.63;;
16634;SDS011;8431;52.458;9.998;2023-06-22T07:34:56;10.52;;;9.82;;
16634;SDS011;8431;52.458;9.998;2023-06-22T07:37:23;10.20;;;9.60;;
16634;SDS011;8431;52.458;9.998;2023-06-22T07:39:52;9.77;;;9.05;;
16634;SDS011;8431;52.458;9.998;2023-06-22T07:42:23;10.15;;;9.38;;
16634;SDS011;8431;52.458;9.998;2023-06-22T07:44:50;10.43;;;9.65;;
16634;SDS011;8431;52.458;9.998;2023-06-22T07:47:19;10.35;;;9.75;;
16634;SDS011;8431;52.458;9.998;2023-06-22T07:49:50;10.50;;;9.77;;
16634;SDS011;8431;52.458;9.998;2023-06-22T07:52:19;9.90;;;9.30;;
16634;SDS011;8431;52.458;9.998;2023-06-22T07:54:47;9.93;;;9.18;;
16634;SDS011;8431;52.458;9.998;2023-06-22T07:57:14;10.48;;;9.80;;
16634;SDS011;8431;52.458;9.998;2023-06-22T07:59:41;10.07;;;9.48;;
16634;SDS011;8431;52.458;9.998;2023-06-22T08:02:08;10.57;;;9.70;;
16634;SDS011;8431;52.458;9.998;2023-06-22T08:04:36;10.18;;;9.43;;
16634;SDS011;8431;52.458;9.998;2023-06-22T08:07:03;11.80;;;10.73;;
16634;SDS011;8431;52.458;9.998;2023-06-22T08:09:31;11.65;;;11.02;;
16634;SDS011;8431;52.458;9.998;2023-06-22T08:11:58;11.43;;;10.60;;
16634;SDS011;8431;52.458;9.998;2023-06-22T08:14:26;12.48;;;11.77;;
16634;SDS011;8431;52.458;9.998;2023-06-22T08:16:54;11.82;;;11.13;;
16634;SDS011;8431;52.458;9.998;2023-06-22T08:19:21;12.60;;;11.68;;
16634;SDS011;8431;52.458;9.998;2023-06-22T08:21:49;11.73;;;11.02;;
16634;SDS011;8431;52.458;9.998;2023-06-22T08:24:16;13.00;;;12.18;;
16634;SDS011;8431;52.458;9.998;2023-06-22T08:26:43;11.35;;;10.57;;
16634;SDS011;8431;52.458;9.998;2023-06-22T08:29:10;12.90;;;12.00;;
16634;SDS011;8431;52.458;9.998;2023-06-22T08:31:37;11.50;;;10.73;;
16634;SDS011;8431;52.458;9.998;2023-06-22T08:34:04;13.38;;;12.38;;
16634;SDS011;8431;52.458;9.998;2023-06-22T08:36:31;13.15;;;12.35;;
16634;SDS011;8431;52.458;9.998;2023-06-22T08:39:01;13.27;;;12.38;;
16634;SDS011;8431;52.458;9.998;2023-06-22T08:41:28;13.25;;;12.43;;
16634;SDS011;8431;52.458;9.998;2023-06-22T08:43:56;13.48;;;12.68;;
16634;SDS011;8431;52.458;9.998;2023-06-22T08:46:23;12.95;;;11.70;;
16634;SDS011;8431;52.458;9.998;2023-06-22T08:48:55;13.18;;;12.35;;
16634;SDS011;8431;52.458;9.998;2023-06-22T08:51:23;12.50;;;11.38;;
16634;SDS011;8431;52.458;9.998;2023-06-22T08:53:50;13.13;;;12.32;;
16634;SDS011;8431;52.458;9.998;2023-06-22T08:56:18;12.48;;;11.63;;
16634;SDS011;8431;52.458;9.998;2023-06-22T08:58:45;12.10;;;11.30;;
16634;SDS011;8431;52.458;9.998;2023-06-22T09:01:12;13.35;;;12.55;;
16634;SDS011;8431;52.458;9.998;2023-06-22T09:03:40;12.80;;;11.95;;
16634;SDS011;8431;52.458;9.998;2023-06-22T09:06:07;13.18;;;12.30;;
16634;SDS011;8431;52.458;9.998;2023-06-22T09:08:35;13.27;;;12.43;;
16634;SDS011;8431;52.458;9.998;2023-06-22T09:11:02;13.82;;;12.80;;
16634;SDS011;8431;52.458;9.998;2023-06-22T09:13:31;12.93;;;11.85;;
16634;SDS011;8431;52.458;9.998;2023-06-22T09:15:59;13.40;;;12.38;;
16634;SDS011;8431;52.458;9.998;2023-06-22T09:18:26;12.77;;;11.88;;
16634;SDS011;8431;52.458;9.998;2023-06-22T09:20:53;13.10;;;11.90;;
16634;SDS011;8431;52.458;9.998;2023-06-22T09:23:20;13.55;;;12.55;;
16634;SDS011;8431;52.458;9.998;2023-06-22T09:25:47;13.15;;;12.15;;
16634;SDS011;8431;52.458;9.998;2023-06-22T09:28:14;12.73;;;11.93;;
16634;SDS011;8431;52.458;9.998;2023-06-22T09:30:43;13.70;;;12.90;;
16634;SDS011;8431;52.458;9.998;2023-06-22T09:33:10;12.18;;;11.20;;
16634;SDS011;8431;52.458;9.998;2023-06-22T09:35:38;13.13;;;12.10;;
16634;SDS011;8431;52.458;9.998;2023-06-22T09:38:04;13.13;;;12.15;;
16634;SDS011;8431;52.458;9.998;2023-06-22T09:40:31;14.45;;;13.35;;
16634;SDS011;8431;52.458;9.998;2023-06-22T09:43:00;12.85;;;11.95;;
16634;SDS011;8431;52.458;9.998;2023-06-22T09:45:27;12.82;;;11.93;;
16634;SDS011;8431;52.458;9.998;2023-06-22T09:47:56;12.40;;;11.70;;
16634;SDS011;8431;52.458;9.998;2023-06-22T09:50:23;12.27;;;11.48;;
16634;SDS011;8431;52.458;9.998;2023-06-22T09:52:50;13.70;;;12.80;;
16634;SDS011;8431;52.458;9.998;2023-06-22T09:55:19;12.48;;;11.57;;
16634;SDS011;8431;52.458;9.998;2023-06-22T09:57:48;12.98;;;12.07;;
16634;SDS011;8431;52.458;9.998;2023-06-22T10:00:18;13.02;;;12.27;;
16634;SDS011;8431;52.458;9.998;2023-06-22T10:02:46;12.73;;;11.80;;
16634;SDS011;8431;52.458;9.998;2023-06-22T10:05:14;13.73;;;12.73;;
16634;SDS011;8431;52.458;9.998;2023-06-22T10:07:41;13.02;;;12.00;;
16634;SDS011;8431;52.458;9.998;2023-06-22T10:10:09;14.20;;;13.02;;
16634;SDS011;8431;52.458;9.998;2023-06-22T10:12:36;13.55;;;12.50;;
16634;SDS011;8431;52.458;9.998;2023-06-22T10:15:07;13.45;;;12.18;;
16634;SDS011;8431;52.458;9.998;2023-06-22T10:17:35;13.18;;;12.13;;
16634;SDS011;8431;52.458;9.998;2023-06-22T10:20:02;13.38;;;12.38;;
16634;SDS011;8431;52.458;9.998;2023-06-22T10:22:37;11.68;;;10.88;;
16634;SDS011;8431;52.458;9.998;2023-06-22T10:25:05;11.60;;;10.80;;
16634;SDS011;8431;52.458;9.998;2023-06-22T10:27:33;12.15;;;11.18;;
16634;SDS011;8431;52.458;9.998;2023-06-22T10:30:00;12.32;;;11.52;;
16634;SDS011;8431;52.458;9.998;2023-06-22T10:32:26;12.85;;;12.05;;
16634;SDS011;8431;52.458;9.998;2023-06-22T10:34:54;14.27;;;13.15;;
16634;SDS011;8431;52.458;9.998;2023-06-22T10:37:21;12.88;;;11.98;;
16634;SDS011;8431;52.458;9.998;2023-06-22T10:39:50;13.00;;;12.27;;
16634;SDS011;8431;52.458;9.998;2023-06-22T10:42:17;13.50;;;12.55;;
16634;SDS011;8431;52.458;9.998;2023-06-22T10:44:44;14.77;;;13.40;;
16634;SDS011;8431;52.458;9.998;2023-06-22T10:47:11;13.45;;;12.55;;
16634;SDS011;8431;52.458;9.998;2023-06-22T10:49:38;13.45;;;12.55;;
16634;SDS011;8431;52.458;9.998;2023-06-22T10:52:05;13.68;;;12.75;;
16634;SDS011;8431;52.458;9.998;2023-06-22T10:54:33;14.02;;;13.13;;
16634;SDS011;8431;52.458;9.998;2023-06-22T10:57:02;14.25;;;12.30;;
16634;SDS011;8431;52.458;9.998;2023-06-22T10:59:29;13.45;;;12.32;;
16634;SDS011;8431;52.458;9.998;2023-06-22T11:01:56;13.95;;;12.93;;
16634;SDS011;8431;52.458;9.998;2023-06-22T11:04:23;13.93;;;12.93;;
16634;SDS011;8431;52.458;9.998;2023-06-22T11:06:51;13.80;;;13.00;;
16634;SDS011;8431;52.458;9.998;2023-06-22T11:09:18;13.65;;;12.68;;
16634;SDS011;8431;52.458;9.998;2023-06-22T11:11:46;13.95;;;13.02;;
16634;SDS011;8431;52.458;9.998;2023-06-22T11:14:14;14.85;;;13.73;;
16634;SDS011;8431;52.458;9.998;2023-06-22T11:16:41;13.95;;;12.93;;
16634;SDS011;8431;52.458;9.998;2023-06-22T11:19:09;14.63;;;13.27;;
16634;SDS011;8431;52.458;9.998;2023-06-22T11:21:36;13.43;;;12.52;;
16634;SDS011;8431;52.458;9.998;2023-06-22T11:24:03;14.55;;;12.77;;
16634;SDS011;8431;52.458;9.998;2023-06-22T11:26:30;13.30;;;12.20;;
16634;SDS011;8431;52.458;9.998;2023-06-22T11:28:58;13.30;;;12.30;;
16634;SDS011;8431;52.458;9.998;2023-06-22T11:31:26;13.23;;;12.43;;
16634;SDS011;8431;52.458;9.998;2023-06-22T11:33:53;13.35;;;12.45;;
16634;SDS011;8431;52.458;9.998;2023-06-22T11:36:20;12.80;;;12.02;;
16634;SDS011;8431;52.458;9.998;2023-06-22T11:38:47;11.63;;;10.82;;
16634;SDS011;8431;52.458;9.998;2023-06-22T11:41:14;12.07;;;11.35;;
16634;SDS011;8431;52.458;9.998;2023-06-22T11:43:41;12.88;;;11.98;;
16634;SDS011;8431;52.458;9.998;2023-06-22T11:46:08;12.70;;;11.90;;
16634;SDS011;8431;52.458;9.998;2023-06-22T11:48:36;13.65;;;12.75;;
16634;SDS011;8431;52.458;9.998;2023-06-22T11:51:03;13.82;;;12.82;;
16634;SDS011;8431;52.458;9.998;2023-06-22T11:53:31;16.02;;;12.90;;
16634;SDS011;8431;52.458;9.998;2023-06-22T11:55:59;13.55;;;12.52;;
16634;SDS011;8431;52.458;9.998;2023-06-22T11:58:27;13.23;;;12.27;;
16634;SDS011;8431;52.458;9.998;2023-06-22T12:00:54;13.85;;;13.05;;
16634;SDS011;8431;52.458;9.998;2023-06-22T12:03:21;12.98;;;11.98;;
16634;SDS011;8431;52.458;9.998;2023-06-22T12:05:49;12.95;;;11.98;;
16634;SDS011;8431;52.458;9.998;2023-06-22T12:08:17;14.13;;;12.93;;
16634;SDS011;8431;52.458;9.998;2023-06-22T12:10:44;13.00;;;12.20;;
16634;SDS011;8431;52.458;9.998;2023-06-22T12:13:11;13.88;;;12.90;;
16634;SDS011;8431;52.458;9.998;2023-06-22T12:15:38;12.77;;;11.98;;
16634;SDS011;8431;52.458;9.998;2023-06-22T12:18:05;14.23;;;13.23;;
16634;SDS011;8431;52.458;9.998;2023-06-22T12:20:33;14.07;;;12.77;;
16634;SDS011;8431;52.458;9.998;2023-06-22T12:23:02;14.55;;;13.55;;
16634;SDS011;8431;52.458;9.998;2023-06-22T12:25:29;14.57;;;13.57;;
16634;SDS011;8431;52.458;9.998;2023-06-22T12:27:55;14.57;;;13.38;;
16634;SDS011;8431;52.458;9.998;2023-06-22T12:30:22;13.80;;;12.63;;
16634;SDS011;8431;52.458;9.998;2023-06-22T12:32:50;14.30;;;13.15;;
16634;SDS011;8431;52.458;9.998;2023-06-22T12:35:17;13.88;;;12.88;;
16634;SDS011;8431;52.458;9.998;2023-06-22T12:37:43;14.20;;;13.20;;
16634;SDS011;8431;52.458;9.998;2023-06-22T12:40:12;14.68;;;13.70;;
16634;SDS011;8431;52.458;9.998;2023-06-22T12:42:39;13.00;;;12.10;;
16634;SDS011;8431;52.458;9.998;2023-06-22T12:45:07;13.02;;;12.07;;
16634;SDS011;8431;52.458;9.998;2023-06-22T12:47:35;12.73;;;11.70;;
16634;SDS011;8431;52.458;9.998;2023-06-22T12:52:36;13.63;;;12.60;;
16634;SDS011;8431;52.458;9.998;2023-06-22T12:55:04;13.60;;;12.65;;
16634;SDS011;8431;52.458;9.998;2023-06-22T12:57:33;12.95;;;11.85;;
16634;SDS011;8431;52.458;9.998;2023-06-22T13:00:00;13.30;;;12.57;;
16634;SDS011;8431;52.458;9.998;2023-06-22T13:02:29;12.05;;;11.35;;
16634;SDS011;8431;52.458;9.998;2023-06-22T13:04:56;13.20;;;12.30;;
16634;SDS011;8431;52.458;9.998;2023-06-22T13:07:23;14.70;;;13.38;;
16634;SDS011;8431;52.458;9.998;2023-06-22T13:09:50;12.73;;;11.57;;
16634;SDS011;8431;52.458;9.998;2023-06-22T13:12:20;13.70;;;12.90;;
16634;SDS011;8431;52.458;9.998;2023-06-22T13:14:49;12.80;;;12.10;;
16634;SDS011;8431;52.458;9.998;2023-06-22T13:17:16;14.48;;;12.88;;
16634;SDS011;8431;52.458;9.998;2023-06-22T13:19:43;13.13;;;11.98;;
16634;SDS011;8431;52.458;9.998;2023-06-22T13:22:25;13.02;;;12.10;;
16634;SDS011;8431;52.458;9.998;2023-06-22T13:24:55;12.85;;;12.05;;
16634;SDS011;8431;52.458;9.998;2023-06-22T13:27:22;13.52;;;12.43;;
16634;SDS011;8431;52.458;9.998;2023-06-22T13:29:50;14.95;;;13.93;;
16634;SDS011;8431;52.458;9.998;2023-06-22T13:32:18;15.43;;;14.20;;
16634;SDS011;8431;52.458;9.998;2023-06-22T13:34:45;17.50;;;16.17;;
16634;SDS011;8431;52.458;9.998;2023-06-22T13:37:12;17.55;;;15.73;;
16634;SDS011;8431;52.458;9.998;2023-06-22T13:42:30;18.60;;;17.20;;
16634;SDS011;8431;52.458;9.998;2023-06-22T13:44:59;18.88;;;17.40;;
16634;SDS011;8431;52.458;9.998;2023-06-22T13:47:26;19.10;;;17.63;;
16634;SDS011;8431;52.458;9.998;2023-06-22T13:49:55;17.63;;;16.02;;
16634;SDS011;8431;52.458;9.998;2023-06-22T13:52:24;18.70;;;17.15;;
16634;SDS011;8431;52.458;9.998;2023-06-22T13:54:51;17.88;;;16.27;;
16634;SDS011;8431;52.458;9.998;2023-06-22T13:59:54;19.35;;;17.63;;
16634;SDS011;8431;52.458;9.998;2023-06-22T14:02:23;18.15;;;16.55;;
16634;SDS011;8431;52.458;9.998;2023-06-22T14:07:20;16.38;;;15.27;;
16634;SDS011;8431;52.458;9.998;2023-06-22T14:09:47;16.80;;;15.70;;
16634;SDS011;8431;52.458;9.998;2023-06-22T14:12:15;16.75;;;15.45;;
16634;SDS011;8431;52.458;9.998;2023-06-22T14:14:44;15.85;;;14.82;;
16634;SDS011;8431;52.458;9.998;2023-06-22T14:19:43;16.48;;;15.38;;
16634;SDS011;8431;52.458;9.998;2023-06-22T14:22:10;16.10;;;15.00;;
16634;SDS011;8431;52.458;9.998;2023-06-22T14:24:37;14.88;;;13.88;;
16634;SDS011;8431;52.458;9.998;2023-06-22T14:27:05;14.00;;;12.80;;
16634;SDS011;8431;52.458;9.998;2023-06-22T14:29:33;14.30;;;13.32;;
16634;SDS011;8431;52.458;9.998;2023-06-22T14:32:00;17.15;;;15.85;;
16634;SDS011;8431;52.458;9.998;2023-06-22T14:34:27;19.10;;;17.90;;
16634;SDS011;8431;52.458;9.998;2023-06-22T14:36:56;21.67;;;20.08;;
16634;SDS011;8431;52.458;9.998;2023-06-22T14:39:23;18.75;;;17.55;;
16634;SDS011;8431;52.458;9.998;2023-06-22T14:41:49;18.00;;;16.88;;
16634;SDS011;8431;52.458;9.998;2023-06-22T14:44:16;17.77;;;16.60;;
16634;SDS011;8431;52.458;9.998;2023-06-22T14:46:43;17.77;;;16.30;;
16634;SDS011;8431;52.458;9.998;2023-06-22T14:49:10;17.23;;;15.93;;
16634;SDS011;8431;52.458;9.998;2023-06-22T14:51:37;15.50;;;14.30;;
16634;SDS011;8431;52.458;9.998;2023-06-22T14:54:06;15.35;;;14.25;;
16634;SDS011;8431;52.458;9.998;2023-06-22T14:56:32;14.68;;;13.48;;
16634;SDS011;8431;52.458;9.998;2023-06-22T14:59:00;13.50;;;12.40;;